Time;durP1;ratioP1;P1;durP2;ratioP2;P2;SDS_P1;SDS_P2;PMS_P1;PMS_P2;Temp;Humidity;BMP_temperature;BMP_pressure;BME280_temperature;BME280_humidity;BME280_pressure;Samples;Min_cycle;Max_cycle;Signal;HPM_P1;HPM_P2
2022/12/07 00:01:52;;;;;;;4.57;3.40;;;9.20;74.10;9.00;96302.00;;;;5100621;28;20226;-86
2022/12/07 00:04:19;;;;;;;3.43;3.13;;;9.10;74.10;9.00;96304.00;;;;5101192;28;20812;-84
2022/12/07 00:06:52;;;;;;;3.83;3.47;;;9.20;74.20;9.00;96299.00;;;;5102948;28;20232;-86
2022/12/07 00:09:19;;;;;;;4.10;3.80;;;9.10;74.20;9.00;96299.00;;;;5096592;28;20276;-83
2022/12/07 00:11:51;;;;;;;3.73;3.43;;;9.20;74.20;9.00;96292.00;;;;5102936;28;20218;-86
2022/12/07 00:14:19;;;;;;;6.07;3.57;;;9.20;74.10;9.00;96297.00;;;;5103335;28;20218;-85
2022/12/07 00:16:51;;;;;;;3.70;3.40;;;9.10;74.10;9.00;96291.00;;;;5102723;28;20202;-86
2022/12/07 00:19:19;;;;;;;3.60;3.30;;;9.20;74.30;9.00;96290.00;;;;5102444;28;20650;-84
2022/12/07 00:21:46;;;;;;;4.33;3.83;;;9.20;74.30;9.00;96293.00;;;;5101600;28;20191;-85
2022/12/07 00:24:13;;;;;;;5.53;4.03;;;9.10;74.20;9.00;96290.00;;;;5105078;28;20782;-85
2022/12/07 00:26:43;;;;;;;4.10;3.70;;;9.10;74.30;9.00;96290.00;;;;5103476;28;20294;-84
2022/12/07 00:29:17;;;;;;;3.83;3.50;;;9.20;74.20;9.00;96291.00;;;;5103370;28;20213;-83
2022/12/07 00:31:44;;;;;;;4.10;3.70;;;9.20;74.10;9.00;96292.00;;;;5105232;28;20692;-85
2022/12/07 00:34:17;;;;;;;3.53;3.27;;;9.10;74.00;9.00;96295.00;;;;5102841;28;20309;-86
2022/12/07 00:36:44;;;;;;;3.53;3.13;;;9.10;74.10;9.00;96295.00;;;;5100227;28;20281;-86
2022/12/07 00:39:11;;;;;;;3.77;3.47;;;9.10;74.10;9.00;96293.00;;;;5102801;28;20230;-86
2022/12/07 00:41:39;;;;;;;4.77;3.90;;;9.10;74.10;9.00;96292.00;;;;5106119;28;20745;-86
2022/12/07 00:44:06;;;;;;;3.43;3.13;;;9.10;74.70;9.00;96282.00;;;;5105511;28;20733;-85
2022/12/07 00:46:33;;;;;;;5.00;3.40;;;9.20;74.10;9.00;96291.00;;;;5103735;28;20761;-86
2022/12/07 00:49:00;;;;;;;3.97;3.67;;;9.10;74.00;9.00;96295.00;;;;5106875;28;20332;-85
2022/12/07 00:51:29;;;;;;;3.80;3.50;;;9.10;74.00;9.00;96284.00;;;;5105326;28;20872;-85
2022/12/07 00:53:56;;;;;;;4.07;3.77;;;9.10;74.00;9.00;96297.00;;;;5105787;28;20238;-83
2022/12/07 00:56:26;;;;;;;3.87;3.50;;;9.10;74.10;9.00;96284.00;;;;5106657;28;20194;-84
2022/12/07 00:58:55;;;;;;;4.20;3.80;;;9.10;74.20;9.00;96286.00;;;;5106667;28;20195;-84
2022/12/07 01:01:23;;;;;;;3.80;3.50;;;9.10;74.30;8.90;96283.00;;;;5105115;28;20198;-85
2022/12/07 01:03:50;;;;;;;3.63;3.33;;;9.10;74.10;8.90;96286.00;;;;5104402;28;20222;-85
2022/12/07 01:06:19;;;;;;;4.23;3.83;;;9.10;73.80;8.90;96280.00;;;;5102068;28;20289;-85
2022/12/07 01:08:47;;;;;;;4.00;3.70;;;9.10;73.90;8.90;96286.00;;;;5105174;28;20657;-85
2022/12/07 01:11:17;;;;;;;3.87;3.57;;;9.10;74.10;8.90;96282.00;;;;5105870;28;20943;-86
2022/12/07 01:13:45;;;;;;;4.33;3.93;;;9.10;74.20;8.90;96289.00;;;;5105059;28;20665;-85
2022/12/07 01:16:15;;;;;;;4.17;3.77;;;9.10;74.30;8.90;96282.00;;;;5104379;28;20293;-85
2022/12/07 01:18:46;;;;;;;7.43;3.80;;;9.10;74.30;8.90;96289.00;;;;5105521;28;20207;-85
2022/12/07 01:21:17;;;;;;;4.17;3.77;;;9.10;74.10;9.00;96292.00;;;;5106922;28;20226;-83
2022/12/07 01:23:45;;;;;;;4.40;4.00;;;9.00;74.10;8.90;96292.00;;;;5105900;28;20262;-85
2022/12/07 01:26:17;;;;;;;3.40;3.20;;;9.10;74.20;8.90;96291.00;;;;5104903;28;20281;-86
2022/12/07 01:28:45;;;;;;;4.33;3.90;;;9.10;74.30;9.00;96295.00;;;;5103128;28;20768;-86
2022/12/07 01:31:15;;;;;;;3.70;3.40;;;9.10;74.30;8.90;96287.00;;;;5106416;28;20568;-85
2022/12/07 01:33:44;;;;;;;4.00;3.70;;;9.10;74.20;8.90;96293.00;;;;5104026;28;20260;-86
2022/12/07 01:36:16;;;;;;;3.93;3.63;;;9.10;74.00;8.90;96283.00;;;;5101379;28;20297;-85
2022/12/07 01:38:44;;;;;;;3.87;3.57;;;9.10;73.80;8.90;96283.00;;;;5105637;28;20454;-83
2022/12/07 01:41:14;;;;;;;4.73;4.07;;;9.00;73.90;8.90;96287.00;;;;5124674;28;20234;-83
2022/12/07 01:44:31;;;;;;;4.27;3.63;;;9.00;74.00;8.90;96280.00;;;;5126596;28;20246;-84
2022/12/07 01:47:02;;;;;;;3.80;3.50;;;9.00;74.00;8.90;96282.00;;;;5108935;28;20206;-83
2022/12/07 01:49:36;;;;;;;4.63;3.40;;;9.00;74.10;8.90;96280.00;;;;5123472;28;20206;-83
2022/12/07 01:52:16;;;;;;;5.63;4.17;;;9.00;74.10;8.90;96278.00;;;;5126648;28;20204;-83
2022/12/07 01:54:46;;;;;;;3.97;3.57;;;9.00;74.10;8.90;96275.00;;;;5120585;28;20603;-83
2022/12/07 01:57:17;;;;;;;3.60;3.30;;;9.00;74.10;8.90;96273.00;;;;5108109;28;20187;-83
2022/12/07 01:59:49;;;;;;;3.83;3.50;;;9.00;73.90;8.90;96268.00;;;;5110330;28;20247;-84
2022/12/07 02:02:24;;;;;;;3.57;3.27;;;9.00;73.90;8.90;96277.00;;;;5116395;28;20190;-84
2022/12/07 02:04:53;;;;;;;4.13;3.77;;;9.00;73.90;8.90;96270.00;;;;5110496;28;20232;-85
2022/12/07 02:07:22;;;;;;;7.20;4.03;;;9.00;74.00;8.90;96277.00;;;;5116875;28;20483;-86
2022/12/07 02:09:49;;;;;;;4.50;3.60;;;9.00;74.10;8.90;96278.00;;;;5114869;28;20199;-83
2022/12/07 02:12:17;;;;;;;3.93;3.63;;;9.00;74.10;8.90;96266.00;;;;5123891;28;20210;-83
2022/12/07 02:14:45;;;;;;;4.10;3.70;;;9.00;74.20;8.90;96274.00;;;;5122671;28;20223;-82
2022/12/07 02:17:26;;;;;;;4.00;3.70;;;9.00;74.40;8.90;96277.00;;;;5122089;28;20263;-83
2022/12/07 02:20:22;;;;;;;4.60;3.87;;;9.00;74.40;8.80;96277.00;;;;5121972;28;20217;-83
2022/12/07 02:23:38;;;;;;;3.67;3.40;;;9.00;74.30;8.80;96274.00;;;;5125263;28;20208;-83
2022/12/07 02:27:15;;;;;;;10.43;4.10;;;9.00;74.10;8.80;96282.00;;;;5117354;28;20290;-85
2022/12/07 02:29:56;;;;;;;3.83;3.30;;;9.00;74.10;8.80;96272.00;;;;5106429;28;20302;-83
2022/12/07 02:32:28;;;;;;;4.33;3.70;;;9.00;74.10;8.80;96278.00;;;;5105879;28;20364;-85
2022/12/07 02:35:05;;;;;;;3.50;3.20;;;9.00;74.10;8.80;96273.00;;;;5107049;28;20234;-86
2022/12/07 02:37:41;;;;;;;6.67;3.83;;;9.00;74.20;8.80;96286.00;;;;5102945;28;20217;-85
2022/12/07 02:40:17;;;;;;;7.53;4.10;;;8.90;74.10;8.80;96276.00;;;;5101774;28;20194;-85
2022/12/07 02:42:54;;;;;;;5.03;4.30;;;8.90;74.30;8.80;96268.00;;;;5106388;28;20423;-85
2022/12/07 02:45:28;;;;;;;3.70;3.40;;;8.90;74.40;8.80;96275.00;;;;5103278;28;20284;-85
2022/12/07 02:48:01;;;;;;;5.60;3.87;;;9.00;74.50;8.80;96275.00;;;;5102604;28;20277;-85
2022/12/07 02:50:28;;;;;;;5.00;3.70;;;8.90;74.40;8.80;96268.00;;;;5100962;28;20201;-85
2022/12/07 02:52:56;;;;;;;4.30;3.30;;;8.90;74.40;8.70;96266.00;;;;5106259;28;20218;-85
2022/12/07 02:55:31;;;;;;;4.90;3.47;;;8.90;74.40;8.80;96269.00;;;;5100847;28;20304;-86
2022/12/07 02:58:23;;;;;;;6.30;3.80;;;8.90;74.30;8.70;96263.00;;;;5104113;28;20202;-86
2022/12/07 03:01:05;;;;;;;3.90;3.60;;;8.90;74.30;8.70;96264.00;;;;5103035;28;20199;-86
2022/12/07 03:03:34;;;;;;;4.73;3.80;;;8.90;74.20;8.80;96263.00;;;;5103954;28;20318;-85
2022/12/07 03:06:15;;;;;;;3.87;3.47;;;8.90;74.20;8.70;96262.00;;;;5102969;28;20253;-86
2022/12/07 03:08:56;;;;;;;5.17;3.90;;;8.90;74.10;8.70;96268.00;;;;5103254;28;20676;-86
2022/12/07 03:11:33;;;;;;;4.00;3.70;;;8.90;74.10;8.70;96264.00;;;;5102806;28;20194;-85
2022/12/07 03:14:10;;;;;;;4.73;3.77;;;8.90;74.20;8.70;96262.00;;;;5103790;28;20252;-85
2022/12/07 03:16:47;;;;;;;3.67;3.37;;;8.80;74.20;8.70;96261.00;;;;5102161;28;20195;-86
2022/12/07 03:19:19;;;;;;;3.80;3.50;;;8.80;74.10;8.70;96260.00;;;;5103909;28;20312;-85
2022/12/07 03:21:54;;;;;;;4.43;4.03;;;8.80;74.10;8.70;96262.00;;;;5102776;28;20187;-85
2022/12/07 03:24:28;;;;;;;9.27;4.77;;;8.80;74.10;8.70;96264.00;;;;5103882;28;20222;-83
2022/12/07 03:27:04;;;;;;;5.30;3.63;;;8.80;74.10;8.60;96258.00;;;;5102302;28;20266;-84
2022/12/07 03:29:37;;;;;;;3.63;3.33;;;8.80;74.10;8.60;96262.00;;;;5103363;28;20194;-86
2022/12/07 03:32:12;;;;;;;4.20;3.80;;;8.80;74.20;8.60;96257.00;;;;5103209;28;20277;-84
2022/12/07 03:34:50;;;;;;;6.07;4.03;;;8.80;74.00;8.60;96251.00;;;;5100439;28;21024;-85
2022/12/07 03:37:27;;;;;;;4.27;3.87;;;8.80;74.00;8.60;96254.00;;;;5099359;28;20191;-84
2022/12/07 03:40:03;;;;;;;6.03;4.03;;;8.80;74.10;8.60;96256.00;;;;5103847;28;20251;-85
2022/12/07 03:42:31;;;;;;;4.37;3.87;;;8.80;74.30;8.60;96248.00;;;;5099275;28;20299;-86
2022/12/07 03:44:59;;;;;;;9.57;3.83;;;8.80;74.30;8.60;96248.00;;;;5101768;28;20269;-85
2022/12/07 03:47:35;;;;;;;4.00;3.63;;;8.70;74.30;8.60;96257.00;;;;5101445;28;20209;-86
2022/12/07 03:50:12;;;;;;;4.20;3.80;;;8.70;74.40;8.60;96249.00;;;;5102604;28;20220;-85
2022/12/07 03:52:45;;;;;;;5.10;3.70;;;8.80;74.50;8.60;96240.00;;;;5102898;28;20247;-85
2022/12/07 03:55:21;;;;;;;4.13;3.73;;;8.80;74.60;8.60;96254.00;;;;5101777;28;20244;-86
2022/12/07 03:57:53;;;;;;;6.43;3.50;;;8.80;74.50;8.60;96243.00;;;;5102119;28;20324;-84
2022/12/07 04:00:21;;;;;;;3.97;3.67;;;8.70;74.60;8.60;96242.00;;;;5103375;28;20589;-85
2022/12/07 04:02:53;;;;;;;6.77;4.37;;;8.80;74.60;8.60;96246.00;;;;5102957;28;20267;-84
2022/12/07 04:05:20;;;;;;;4.50;4.10;;;8.80;74.50;8.60;96237.00;;;;5101422;28;20331;-85
2022/12/07 04:07:48;;;;;;;4.23;3.83;;;8.80;74.50;8.60;96243.00;;;;5103100;28;20318;-85
2022/12/07 04:10:15;;;;;;;4.53;4.13;;;8.80;74.40;8.60;96237.00;;;;5101226;28;20199;-85
2022/12/07 04:12:42;;;;;;;4.40;4.00;;;8.80;74.30;8.60;96236.00;;;;5101814;28;20232;-83
2022/12/07 04:15:10;;;;;;;4.33;3.93;;;8.70;74.20;8.50;96236.00;;;;5099544;28;20607;-85
2022/12/07 04:17:37;;;;;;;7.73;4.33;;;8.70;74.10;8.50;96234.00;;;;5100477;28;20205;-84
2022/12/07 04:20:08;;;;;;;4.60;4.20;;;8.70;74.30;8.50;96237.00;;;;5101712;28;20237;-86
2022/12/07 04:22:35;;;;;;;4.53;4.13;;;8.70;74.20;8.50;96240.00;;;;5101623;28;20234;-86
2022/12/07 04:25:03;;;;;;;4.70;4.30;;;8.70;74.20;8.50;96236.00;;;;5100577;28;20695;-85
2022/12/07 04:27:30;;;;;;;4.53;4.13;;;8.70;75.00;8.60;96244.00;;;;5100857;28;20281;-86
2022/12/07 04:29:57;;;;;;;4.83;4.40;;;8.70;74.20;8.60;96233.00;;;;5101172;28;20762;-85
2022/12/07 04:32:25;;;;;;;5.43;4.30;;;8.70;74.20;8.60;96235.00;;;;5102490;28;20195;-85
2022/12/07 04:34:52;;;;;;;5.17;4.67;;;8.70;74.40;8.60;96229.00;;;;5100477;28;20222;-84
2022/12/07 04:37:21;;;;;;;6.03;4.37;;;8.70;75.00;8.60;96232.00;;;;5103566;28;20237;-85
2022/12/07 04:39:48;;;;;;;11.30;4.87;;;8.70;74.20;8.60;96232.00;;;;5102158;28;20278;-85
2022/12/07 04:42:15;;;;;;;4.20;3.90;;;8.70;74.30;8.60;96219.00;;;;5103602;28;20202;-86
2022/12/07 04:44:42;;;;;;;4.80;4.40;;;8.70;74.40;8.60;96227.00;;;;5102024;28;20785;-86
2022/12/07 04:47:09;;;;;;;6.87;4.90;;;8.70;74.30;8.60;96232.00;;;;5100020;28;20234;-82
2022/12/07 04:49:36;;;;;;;4.53;4.13;;;8.70;75.10;8.60;96222.00;;;;5107130;28;20290;-86
2022/12/07 04:52:04;;;;;;;5.80;5.00;;;8.70;75.20;8.60;96236.00;;;;5107226;28;20282;-85
2022/12/07 04:54:32;;;;;;;5.17;4.77;;;8.70;74.50;8.60;96234.00;;;;5107215;28;20349;-86
2022/12/07 04:56:59;;;;;;;8.70;4.60;;;8.80;74.30;8.60;96231.00;;;;5107102;28;20298;-85
2022/12/07 04:59:27;;;;;;;5.07;4.20;;;8.70;74.40;8.60;96234.00;;;;5108908;28;20260;-86
2022/12/07 05:01:54;;;;;;;4.43;4.13;;;8.80;74.50;8.60;96230.00;;;;5104172;28;20281;-83
2022/12/07 05:04:23;;;;;;;5.63;4.90;;;8.70;74.40;8.60;96231.00;;;;5106187;28;20308;-85
2022/12/07 05:06:50;;;;;;;4.67;4.23;;;8.80;74.30;8.60;96245.00;;;;5105156;28;20724;-84
2022/12/07 05:09:18;;;;;;;9.37;4.80;;;8.70;74.20;8.60;96238.00;;;;5106595;28;20294;-86
2022/12/07 05:11:46;;;;;;;5.10;4.60;;;8.70;74.10;8.60;96230.00;;;;5105183;28;20634;-86
2022/12/07 05:14:19;;;;;;;10.73;4.73;;;8.70;74.10;8.60;96237.00;;;;5106629;28;20226;-85
2022/12/07 05:16:49;;;;;;;7.93;4.80;;;8.80;74.00;8.60;96239.00;;;;5105047;28;20198;-85
2022/12/07 05:19:17;;;;;;;4.53;4.13;;;8.80;74.10;8.60;96237.00;;;;5105378;28;20264;-86
2022/12/07 05:21:45;;;;;;;5.20;4.70;;;8.70;74.10;8.60;96238.00;;;;5106128;28;20198;-85
2022/12/07 05:24:15;;;;;;;5.17;4.60;;;8.70;74.00;8.60;96238.00;;;;5104131;28;20257;-86
2022/12/07 05:26:43;;;;;;;4.67;4.20;;;8.70;74.10;8.60;96229.00;;;;5104773;28;20667;-86
2022/12/07 05:29:15;;;;;;;5.00;4.60;;;8.70;74.10;8.60;96244.00;;;;5104316;28;20223;-83
2022/12/07 05:31:42;;;;;;;4.57;4.17;;;8.70;74.20;8.50;96235.00;;;;5106625;28;20680;-85
2022/12/07 05:34:09;;;;;;;4.77;4.27;;;8.70;74.10;8.50;96238.00;;;;5103587;28;20226;-85
2022/12/07 05:36:37;;;;;;;4.90;4.50;;;8.70;74.00;8.50;96234.00;;;;5103723;28;20313;-85
2022/12/07 05:39:05;;;;;;;7.40;4.50;;;8.70;73.90;8.50;96240.00;;;;5106260;28;20619;-84
2022/12/07 05:44:18;;;;;;;5.60;4.20;;;8.70;74.00;8.50;96239.00;;;;5104955;28;20238;-86
2022/12/07 05:46:45;;;;;;;4.83;4.43;;;8.70;74.10;8.50;96238.00;;;;5104797;28;20209;-84
2022/12/07 05:49:12;;;;;;;4.43;4.03;;;8.70;74.10;8.50;96237.00;;;;5104118;28;20432;-84
2022/12/07 05:51:39;;;;;;;4.90;4.50;;;8.70;74.10;8.50;96232.00;;;;5106578;28;20285;-85
2022/12/07 05:54:07;;;;;;;5.50;5.00;;;8.70;74.10;8.50;96232.00;;;;5105915;28;20253;-86
2022/12/07 05:56:34;;;;;;;4.83;4.43;;;8.70;74.30;8.50;96235.00;;;;5104514;28;20273;-85
2022/12/07 06:01:47;;;;;;;4.40;4.00;;;8.70;74.30;8.50;96236.00;;;;5104245;28;20197;-85
2022/12/07 06:04:14;;;;;;;5.87;5.07;;;8.70;74.20;8.50;96237.00;;;;5104621;28;20250;-86
2022/12/07 06:06:41;;;;;;;5.90;5.23;;;8.60;74.20;8.50;96230.00;;;;5103029;28;20241;-83
2022/12/07 06:09:09;;;;;;;5.80;5.27;;;8.70;74.30;8.50;96227.00;;;;5104956;28;20251;-86
2022/12/07 06:14:20;;;;;;;5.27;4.77;;;8.60;74.40;8.50;96222.00;;;;5106028;28;20237;-86
2022/12/07 06:16:49;;;;;;;5.87;4.40;;;8.70;74.40;8.40;96223.00;;;;5102413;28;20638;-86
2022/12/07 06:19:16;;;;;;;4.83;4.43;;;8.70;74.10;8.40;96227.00;;;;5100100;28;20290;-86
2022/12/07 06:21:44;;;;;;;5.00;4.57;;;8.60;74.10;8.40;96220.00;;;;5104543;28;20286;-85
2022/12/07 06:24:13;;;;;;;5.57;4.63;;;8.50;74.10;8.40;96228.00;;;;5102527;28;20218;-86
2022/12/07 06:26:41;;;;;;;5.67;4.70;;;8.60;74.30;8.40;96231.00;;;;5102874;28;20216;-84
2022/12/07 06:29:09;;;;;;;5.27;4.77;;;8.60;74.40;8.40;96239.00;;;;5104290;28;20233;-87
2022/12/07 06:31:37;;;;;;;5.90;4.80;;;8.60;74.40;8.40;96223.00;;;;5104868;28;20274;-87
2022/12/07 06:34:09;;;;;;;5.33;4.43;;;8.60;74.40;8.50;96233.00;;;;5102021;28;20520;-86
2022/12/07 06:36:37;;;;;;;5.50;4.43;;;8.60;74.30;8.50;96230.00;;;;5104039;28;20205;-88
2022/12/07 06:39:06;;;;;;;5.80;4.73;;;8.60;74.30;8.50;96239.00;;;;5104912;28;20305;-87
2022/12/07 06:41:33;;;;;;;6.30;4.83;;;8.60;74.30;8.50;96243.00;;;;5104071;28;20210;-85
2022/12/07 06:44:00;;;;;;;5.33;4.80;;;8.60;74.10;8.50;96239.00;;;;5104581;28;20316;-87
2022/12/07 06:46:28;;;;;;;5.77;4.90;;;8.60;74.10;8.50;96238.00;;;;5100404;28;20230;-88
2022/12/07 06:48:55;;;;;;;6.13;5.63;;;8.60;74.10;8.50;96247.00;;;;5106998;28;20211;-87
2022/12/07 06:51:23;;;;;;;5.00;4.60;;;8.60;73.90;8.50;96245.00;;;;5105145;28;20432;-88
2022/12/07 06:53:50;;;;;;;5.10;4.60;;;8.60;73.90;8.50;96240.00;;;;5105347;28;20228;-86
2022/12/07 06:56:18;;;;;;;5.70;5.20;;;8.50;73.90;8.40;96243.00;;;;5104545;28;20333;-86
2022/12/07 06:58:45;;;;;;;6.77;5.53;;;8.50;73.90;8.40;96241.00;;;;5102573;28;20256;-86
2022/12/07 07:01:12;;;;;;;6.60;5.67;;;8.50;73.80;8.40;96236.00;;;;5105779;28;20305;-89
2022/12/07 07:03:41;;;;;;;5.30;4.90;;;8.50;73.80;8.40;96243.00;;;;5103477;28;20271;-89
2022/12/07 07:06:09;;;;;;;8.23;5.60;;;8.50;74.40;8.30;96243.00;;;;5105449;28;20202;-87
2022/12/07 07:08:38;;;;;;;5.53;5.03;;;8.50;73.60;8.30;96242.00;;;;5106094;28;20308;-88
2022/12/07 07:11:07;;;;;;;5.30;4.80;;;8.50;73.60;8.30;96245.00;;;;5105263;28;20285;-87
2022/12/07 07:13:35;;;;;;;5.60;5.03;;;8.40;73.60;8.20;96240.00;;;;5106387;28;20622;-84
2022/12/07 07:16:02;;;;;;;5.43;4.53;;;8.40;73.70;8.20;96248.00;;;;5105856;28;20728;-88
2022/12/07 07:18:30;;;;;;;4.97;4.47;;;8.40;73.80;8.20;96240.00;;;;5103206;28;20287;-88
2022/12/07 07:20:57;;;;;;;4.47;4.17;;;8.40;74.40;8.20;96249.00;;;;5106138;28;20287;-88
2022/12/07 07:23:25;;;;;;;7.77;5.03;;;8.40;73.80;8.20;96248.00;;;;5102489;28;20237;-85
2022/12/07 07:25:53;;;;;;;7.50;5.07;;;8.30;73.70;8.20;96248.00;;;;5105041;28;20625;-88
2022/12/07 07:28:21;;;;;;;5.30;4.73;;;8.30;73.90;8.20;96247.00;;;;5102664;28;20190;-88
2022/12/07 07:30:48;;;;;;;9.40;6.23;;;8.40;73.90;8.20;96244.00;;;;5105559;28;20211;-87
2022/12/07 07:33:16;;;;;;;5.50;5.00;;;8.30;73.90;8.20;96240.00;;;;5102660;28;20309;-84
2022/12/07 07:35:43;;;;;;;8.57;5.47;;;8.30;73.90;8.20;96244.00;;;;5102027;28;20219;-87
2022/12/07 07:38:10;;;;;;;9.93;6.80;;;8.30;74.00;8.20;96249.00;;;;5105415;28;20202;-88
2022/12/07 07:40:37;;;;;;;15.30;8.53;;;8.30;74.00;8.20;96245.00;;;;5103711;28;21011;-86
2022/12/07 07:43:06;;;;;;;13.07;7.80;;;8.30;74.10;8.20;96242.00;;;;5101968;28;20222;-88
2022/12/07 07:45:33;;;;;;;15.23;8.47;;;8.30;74.30;8.20;96248.00;;;;5100636;28;20202;-88
2022/12/07 07:48:00;;;;;;;13.10;8.50;;;8.30;74.40;8.20;96241.00;;;;5102204;28;20289;-88
2022/12/07 07:50:28;;;;;;;15.00;7.83;;;8.30;74.40;8.30;96240.00;;;;5104667;28;20457;-88
2022/12/07 07:52:55;;;;;;;8.40;6.93;;;8.30;74.40;8.30;96252.00;;;;5102240;28;20289;-85
2022/12/07 07:55:22;;;;;;;9.90;7.00;;;8.30;74.40;8.30;96256.00;;;;5099804;28;20305;-88
2022/12/07 07:57:49;;;;;;;7.50;6.70;;;8.30;74.30;8.30;96254.00;;;;5103224;28;20687;-87
2022/12/07 08:00:19;;;;;;;8.10;6.27;;;8.30;74.40;8.30;96260.00;;;;5105169;28;20275;-87
2022/12/07 08:02:46;;;;;;;6.80;5.97;;;8.40;74.50;8.30;96259.00;;;;5104760;28;20282;-87
2022/12/07 08:05:15;;;;;;;9.40;6.27;;;8.40;74.40;8.30;96264.00;;;;5104325;28;20295;-88
2022/12/07 08:07:43;;;;;;;6.60;5.97;;;8.40;74.30;8.40;96274.00;;;;5105289;28;20289;-88
2022/12/07 08:10:13;;;;;;;5.67;5.10;;;8.40;74.30;8.40;96275.00;;;;5104699;28;20213;-88
2022/12/07 08:15:27;;;;;;;7.97;6.30;;;8.40;74.30;8.40;96275.00;;;;5101054;28;20218;-89
2022/12/07 08:17:54;;;;;;;7.63;5.97;;;8.50;74.20;8.40;96278.00;;;;5104593;28;20661;-89
2022/12/07 08:20:22;;;;;;;6.97;6.30;;;8.40;74.10;8.40;96279.00;;;;5102438;28;20199;-88
2022/12/07 08:22:49;;;;;;;7.67;5.90;;;8.40;73.90;8.40;96300.00;;;;5104441;28;20249;-88
2022/12/07 08:25:16;;;;;;;8.77;5.93;;;8.50;73.80;8.40;96292.00;;;;5105146;28;20784;-88
2022/12/07 08:27:44;;;;;;;7.63;6.83;;;8.40;73.70;8.30;96299.00;;;;5105331;28;20700;-86
2022/12/07 08:30:11;;;;;;;8.80;6.63;;;8.40;73.60;8.30;96298.00;;;;5102145;28;20202;-89
2022/12/07 08:32:40;;;;;;;9.97;7.23;;;8.40;73.80;8.30;96295.00;;;;5100397;28;20629;-88
2022/12/07 08:35:09;;;;;;;8.53;7.50;;;8.40;73.80;8.30;96298.00;;;;5104570;28;20712;-89
2022/12/07 08:37:37;;;;;;;7.87;6.53;;;8.40;73.60;8.30;96299.00;;;;5106467;28;20331;-85
2022/12/07 08:40:06;;;;;;;8.27;6.53;;;8.40;73.60;8.20;96301.00;;;;5107972;28;20337;-88
2022/12/07 08:42:37;;;;;;;8.13;6.93;;;8.40;73.60;8.20;96295.00;;;;5110404;28;20316;-85
2022/12/07 08:45:07;;;;;;;6.77;5.93;;;8.30;73.50;8.20;96290.00;;;;5119502;28;20723;-88
2022/12/07 08:47:36;;;;;;;23.13;6.80;;;8.30;73.40;8.20;96294.00;;;;5115134;28;20199;-89
2022/12/07 08:50:08;;;;;;;9.07;6.80;;;8.30;73.30;8.20;96298.00;;;;5108971;28;20347;-89
2022/12/07 08:52:37;;;;;;;20.93;7.10;;;8.30;73.30;8.10;96285.00;;;;5108900;28;20194;-89
2022/12/07 08:55:06;;;;;;;7.87;6.67;;;8.30;73.40;8.10;96296.00;;;;5107666;28;20309;-89
2022/12/07 08:57:37;;;;;;;7.37;5.87;;;8.20;73.50;8.10;96292.00;;;;5109410;28;20302;-89
2022/12/07 09:00:06;;;;;;;7.33;5.77;;;8.30;73.80;8.10;96293.00;;;;5108943;28;20285;-89
2022/12/07 09:02:33;;;;;;;6.73;6.03;;;8.20;73.80;8.10;96297.00;;;;5107571;28;20202;-89
2022/12/07 09:05:01;;;;;;;6.77;5.20;;;8.30;73.80;8.10;96295.00;;;;5107876;28;20195;-88
2022/12/07 09:07:33;;;;;;;5.87;5.27;;;8.20;73.70;8.10;96295.00;;;;5106335;28;20294;-88
2022/12/07 09:10:00;;;;;;;6.07;5.30;;;8.20;73.80;8.10;96296.00;;;;5106409;28;20553;-89
2022/12/07 09:12:28;;;;;;;5.97;5.37;;;8.20;74.00;8.10;96292.00;;;;5105781;28;20282;-88
2022/12/07 09:14:55;;;;;;;6.30;5.50;;;8.20;74.00;8.10;96297.00;;;;5105655;28;20312;-89
2022/12/07 09:17:22;;;;;;;6.23;5.63;;;8.20;73.80;8.10;96291.00;;;;5105575;28;20278;-88
2022/12/07 09:19:49;;;;;;;6.90;6.03;;;8.20;73.90;8.10;96300.00;;;;5104715;28;21066;-85
2022/12/07 09:22:16;;;;;;;7.40;6.40;;;8.30;74.00;8.10;96296.00;;;;5106922;28;20237;-89
2022/12/07 09:24:45;;;;;;;6.23;5.10;;;8.30;74.80;8.10;96286.00;;;;5104223;28;20211;-85
2022/12/07 09:27:12;;;;;;;6.30;5.70;;;8.20;74.10;8.20;96297.00;;;;5106359;28;20202;-88
2022/12/07 09:29:40;;;;;;;6.73;5.90;;;8.30;74.10;8.20;96288.00;;;;5105126;28;20279;-88
2022/12/07 09:32:07;;;;;;;6.17;5.43;;;8.40;74.10;8.30;96285.00;;;;5105447;28;20202;-88
2022/12/07 09:34:34;;;;;;;6.87;6.17;;;8.40;74.20;8.40;96298.00;;;;5105907;28;20752;-88
2022/12/07 09:37:03;;;;;;;6.33;5.73;;;8.50;74.30;8.50;96294.00;;;;5107640;28;20222;-88
2022/12/07 09:39:30;;;;;;;6.90;5.77;;;8.50;75.00;8.50;96287.00;;;;5107838;28;20206;-88
2022/12/07 09:42:00;;;;;;;6.47;5.87;;;8.60;74.20;8.60;96294.00;;;;5106929;28;20302;-88
2022/12/07 09:44:29;;;;;;;7.43;6.23;;;8.60;74.30;8.70;96281.00;;;;5105786;28;20218;-88
2022/12/07 09:46:57;;;;;;;6.40;5.80;;;8.70;74.20;8.80;96280.00;;;;5108152;28;20665;-87
2022/12/07 09:49:28;;;;;;;6.63;6.03;;;8.80;74.10;8.80;96278.00;;;;5107153;28;20289;-87
2022/12/07 09:52:18;;;;;;;6.30;5.70;;;8.80;73.80;8.90;96279.00;;;;5108562;28;20203;-88
2022/12/07 09:54:50;;;;;;;6.43;5.77;;;8.90;73.60;8.90;96281.00;;;;5102199;28;20305;-88
2022/12/07 09:57:24;;;;;;;9.67;6.03;;;8.90;73.50;8.90;96282.00;;;;5104627;28;20332;-88
2022/12/07 09:59:51;;;;;;;7.53;6.47;;;8.90;73.30;9.00;96279.00;;;;5105174;28;20727;-87
2022/12/07 10:02:36;;;;;;;6.97;6.20;;;9.00;73.60;9.00;96277.00;;;;5108168;28;20284;-87
2022/12/07 10:05:11;;;;;;;6.23;5.67;;;9.00;73.40;9.00;96276.00;;;;5105549;28;20199;-87
2022/12/07 10:07:39;;;;;;;6.13;5.53;;;9.10;73.40;9.00;96284.00;;;;5108038;28;20579;-87
2022/12/07 10:10:15;;;;;;;6.30;5.70;;;9.10;73.20;9.00;96275.00;;;;5108189;28;20252;-88
2022/12/07 10:13:02;;;;;;;6.97;6.27;;;9.10;72.60;8.90;96280.00;;;;5105725;28;20285;-86
2022/12/07 10:15:55;;;;;;;7.00;6.30;;;9.10;72.20;8.90;96280.00;;;;5106448;28;20374;-88
2022/12/07 10:18:33;;;;;;;7.27;5.73;;;9.10;72.40;8.90;96281.00;;;;5106531;28;20201;-88
2022/12/07 10:21:11;;;;;;;6.97;5.67;;;9.10;72.60;8.90;96270.00;;;;5107093;28;20237;-88
2022/12/07 10:23:41;;;;;;;7.30;6.33;;;9.10;72.80;9.00;96274.00;;;;5106321;28;20246;-88
2022/12/07 10:26:42;;;;;;;7.00;6.00;;;9.20;73.40;9.10;96272.00;;;;5100388;28;20639;-88
2022/12/07 10:29:21;;;;;;;6.10;5.50;;;9.30;73.30;9.30;96273.00;;;;5014567;28;20261;-85
2022/12/07 10:31:58;;;;;;;8.10;6.27;;;9.40;73.70;9.40;96273.00;;;;5093874;28;20602;-88
2022/12/07 10:34:29;;;;;;;7.20;6.50;;;9.40;73.80;9.50;96270.00;;;;5103327;28;21132;-88
2022/12/07 10:37:19;;;;;;;10.10;6.27;;;9.50;73.70;9.60;96275.00;;;;5105141;28;20648;-88
2022/12/07 10:39:50;;;;;;;6.53;5.87;;;9.60;73.20;9.70;96266.00;;;;5105398;28;20191;-88
2022/12/07 10:42:20;;;;;;;6.40;5.80;;;9.70;73.20;9.70;96262.00;;;;5106479;28;20260;-88
2022/12/07 10:44:51;;;;;;;6.33;5.73;;;9.70;72.60;9.70;96265.00;;;;5106226;28;20254;-89
2022/12/07 10:47:35;;;;;;;6.80;5.57;;;9.70;72.10;9.80;96258.00;;;;5105638;28;20639;-87
2022/12/07 10:50:45;;;;;;;6.17;5.57;;;9.80;71.90;9.80;96260.00;;;;5103859;28;20610;-88
2022/12/07 10:53:46;;;;;;;5.97;5.37;;;9.80;71.50;9.80;96257.00;;;;5105817;28;20226;-88
2022/12/07 10:56:45;;;;;;;6.73;5.10;;;9.90;71.20;9.90;96253.00;;;;5107035;28;20212;-87
2022/12/07 10:59:54;;;;;;;5.87;5.30;;;9.90;71.40;9.90;96252.00;;;;5104720;28;20203;-85
2022/12/07 11:02:51;;;;;;;5.67;5.07;;;9.80;71.40;10.00;96257.00;;;;5105734;28;21060;-87
2022/12/07 11:05:28;;;;;;;5.97;5.37;;;10.00;71.40;10.00;96259.00;;;;5104378;28;20293;-88
2022/12/07 11:08:12;;;;;;;7.67;5.43;;;10.00;71.70;10.10;96257.00;;;;5104701;28;20187;-89
2022/12/07 11:10:51;;;;;;;5.60;5.00;;;10.00;71.60;10.20;96260.00;;;;5099950;28;20277;-87
2022/12/07 11:13:34;;;;;;;5.67;5.17;;;10.10;71.40;10.20;96242.00;;;;5104151;28;20214;-89
2022/12/07 11:16:25;;;;;;;5.70;5.10;;;10.20;70.80;10.20;96244.00;;;;5106140;28;20587;-88
2022/12/07 11:19:25;;;;;;;6.70;6.10;;;10.20;70.40;10.20;96240.00;;;;5105127;28;20210;-89
2022/12/07 11:21:59;;;;;;;6.27;5.67;;;10.20;70.50;10.30;96232.00;;;;5105631;28;20300;-87
2022/12/07 11:24:40;;;;;;;5.57;5.00;;;10.20;70.60;10.30;96236.00;;;;5103656;28;20326;-86
2022/12/07 11:27:24;;;;;;;6.40;5.80;;;10.30;70.50;10.30;96232.00;;;;5106623;28;20289;-88
2022/12/07 11:30:14;;;;;;;6.00;5.20;;;10.30;70.20;10.30;96220.00;;;;5105052;28;20206;-88
2022/12/07 11:33:11;;;;;;;5.13;4.63;;;10.40;70.10;10.30;96223.00;;;;5106379;28;20301;-89
2022/12/07 11:35:57;;;;;;;8.10;5.17;;;10.30;69.40;10.30;96222.00;;;;5104876;28;20230;-85
2022/12/07 11:38:39;;;;;;;5.37;4.47;;;10.30;70.00;10.40;96221.00;;;;5104902;28;20199;-88
2022/12/07 11:41:13;;;;;;;7.13;5.20;;;10.30;70.50;10.40;96216.00;;;;5105169;28;20219;-85